SDM2505 UUWW-HEGN
Flight info
| Callsign | SDM2505 |
|---|---|
| Flight time | N/A |
| Altitude | 35000 |
| Route | TOGMO M56 ABAGI W21 NIMTA DCT SL A964 NOKLI N72 GORNU B945 MKL A955 LURIS N37 SARPI DCT ODALI DCT GEM A285 MUT R55 KETEK DCT TOMBI A16 CVO DCT SOKOT |
| Aircraft | B748/H-V/N |
Departure
| Time | N/A |
|---|---|
| Airport | Vnukovo International Airport (UUWW) |
Arrival
| Time | 2026-04-29 23:33 |
|---|---|
| Airport | Hurghada International Airport (HEGN) |
| Time | Latitude | Longitude | Altitude | Speed | Heading |
|---|---|---|---|---|---|
| 2026-04-29 23:14 | 27.70868 | 33.37014 | 25289 ft | 494 kts | 148° |
| 2026-04-29 23:14 | 27.68100 | 33.39247 | 23966 ft | 482 kts | 148° |
| 2026-04-29 23:14 | 27.65397 | 33.41427 | 22563 ft | 471 kts | 148° |
| 2026-04-29 23:15 | 27.62760 | 33.43554 | 21164 ft | 461 kts | 148° |
| 2026-04-29 23:15 | 27.60230 | 33.45598 | 20633 ft | 434 kts | 148° |
| 2026-04-29 23:15 | 27.57839 | 33.47525 | 19991 ft | 426 kts | 148° |
| 2026-04-29 23:15 | 27.55357 | 33.49510 | 19327 ft | 444 kts | 147° |
| 2026-04-29 23:16 | 27.52811 | 33.51551 | 18633 ft | 451 kts | 149° |
| 2026-04-29 23:16 | 27.50076 | 33.53228 | 17975 ft | 445 kts | 159° |
| 2026-04-29 23:16 | 27.47250 | 33.54621 | 17375 ft | 440 kts | 159° |
| 2026-04-29 23:16 | 27.44466 | 33.55964 | 16654 ft | 439 kts | 159° |
| 2026-04-29 23:17 | 27.41681 | 33.57306 | 16236 ft | 430 kts | 159° |
| 2026-04-29 23:17 | 27.38948 | 33.58639 | 15676 ft | 426 kts | 159° |
| 2026-04-29 23:17 | 27.36235 | 33.59960 | 15111 ft | 422 kts | 160° |
| 2026-04-29 23:17 | 27.33488 | 33.60944 | 14565 ft | 415 kts | 167° |
| 2026-04-29 23:18 | 27.30697 | 33.61763 | 14019 ft | 412 kts | 168° |
| 2026-04-29 23:18 | 27.27915 | 33.62559 | 13448 ft | 409 kts | 167° |
| 2026-04-29 23:18 | 27.25174 | 33.63373 | 12900 ft | 405 kts | 167° |
| 2026-04-29 23:18 | 27.22500 | 33.64182 | 12377 ft | 400 kts | 167° |
| 2026-04-29 23:19 | 27.19816 | 33.64982 | 11811 ft | 388 kts | 167° |
| 2026-04-29 23:19 | 27.17295 | 33.65728 | 11325 ft | 361 kts | 167° |
| 2026-04-29 23:19 | 27.14931 | 33.66427 | 10859 ft | 339 kts | 167° |
| 2026-04-29 23:19 | 27.12733 | 33.67079 | 10431 ft | 322 kts | 167° |
| 2026-04-29 23:20 | 27.10610 | 33.67707 | 10007 ft | 307 kts | 167° |
| 2026-04-29 23:20 | 27.08571 | 33.68310 | 9628 ft | 300 kts | 167° |
| 2026-04-29 23:20 | 27.06560 | 33.68903 | 9224 ft | 304 kts | 167° |
| 2026-04-29 23:20 | 27.04501 | 33.69512 | 8828 ft | 307 kts | 166° |
| 2026-04-29 23:21 | 27.02413 | 33.70132 | 8418 ft | 311 kts | 166° |
| 2026-04-29 23:21 | 27.00311 | 33.70754 | 8002 ft | 314 kts | 166° |
| 2026-04-29 23:21 | 26.98183 | 33.71383 | 7585 ft | 317 kts | 166° |
| 2026-04-29 23:21 | 26.96035 | 33.72016 | 7166 ft | 320 kts | 166° |
| 2026-04-29 23:22 | 26.93922 | 33.72641 | 6733 ft | 310 kts | 165° |
| 2026-04-29 23:22 | 26.91881 | 33.73245 | 6325 ft | 296 kts | 165° |
| 2026-04-29 23:22 | 26.89905 | 33.73830 | 6069 ft | 295 kts | 165° |
| 2026-04-29 23:22 | 26.87949 | 33.74407 | 6057 ft | 285 kts | 166° |
| 2026-04-29 23:23 | 26.86050 | 33.74967 | 6037 ft | 277 kts | 166° |
| 2026-04-29 23:23 | 26.84219 | 33.75507 | 6008 ft | 271 kts | 165° |
| 2026-04-29 23:23 | 26.82394 | 33.76044 | 5983 ft | 270 kts | 165° |
| 2026-04-29 23:23 | 26.80571 | 33.76581 | 5980 ft | 271 kts | 165° |
| 2026-04-29 23:24 | 26.78750 | 33.77117 | 5971 ft | 271 kts | 165° |
| 2026-04-29 23:24 | 26.76926 | 33.77656 | 5967 ft | 271 kts | 165° |
| 2026-04-29 23:24 | 26.75254 | 33.78524 | 5879 ft | 264 kts | 139° |
| 2026-04-29 23:24 | 26.74155 | 33.80143 | 5596 ft | 264 kts | 110° |
| 2026-04-29 23:25 | 26.73885 | 33.82159 | 5282 ft | 265 kts | 80° |
| 2026-04-29 23:25 | 26.74517 | 33.84077 | 4981 ft | 265 kts | 52° |
| 2026-04-29 23:25 | 26.75842 | 33.85484 | 4655 ft | 265 kts | 27° |
| 2026-04-29 23:25 | 26.77561 | 33.86124 | 4503 ft | 258 kts | 2° |
| 2026-04-29 23:26 | 26.79327 | 33.86012 | 4371 ft | 253 kts | 351° |
| 2026-04-29 23:26 | 26.81044 | 33.85776 | 4218 ft | 251 kts | 353° |
| 2026-04-29 23:26 | 26.82774 | 33.85615 | 4066 ft | 249 kts | 354° |
| 2026-04-29 23:26 | 26.84500 | 33.85494 | 3902 ft | 247 kts | 354° |
| 2026-04-29 23:27 | 26.86210 | 33.85359 | 3761 ft | 245 kts | 354° |
| 2026-04-29 23:27 | 26.87907 | 33.85216 | 3617 ft | 243 kts | 354° |
| 2026-04-29 23:27 | 26.89588 | 33.85076 | 3481 ft | 241 kts | 354° |
| 2026-04-29 23:27 | 26.91250 | 33.84939 | 3339 ft | 239 kts | 353° |
| 2026-04-29 23:28 | 26.92902 | 33.84802 | 3197 ft | 237 kts | 353° |
| 2026-04-29 23:28 | 26.94543 | 33.84667 | 3055 ft | 235 kts | 353° |
| 2026-04-29 23:28 | 26.96167 | 33.84532 | 2921 ft | 233 kts | 353° |
| 2026-04-29 23:28 | 26.97780 | 33.84398 | 2785 ft | 232 kts | 353° |
| 2026-04-29 23:29 | 26.99387 | 33.84265 | 2656 ft | 231 kts | 353° |
| 2026-04-29 23:29 | 27.00983 | 33.84134 | 2526 ft | 226 kts | 353° |
| 2026-04-29 23:29 | 27.02487 | 33.84012 | 2426 ft | 208 kts | 353° |
| 2026-04-29 23:29 | 27.03878 | 33.83897 | 2284 ft | 193 kts | 353° |
| 2026-04-29 23:30 | 27.05145 | 33.83794 | 2181 ft | 174 kts | 351° |
| 2026-04-29 23:30 | 27.06299 | 33.83505 | 2005 ft | 174 kts | 342° |
| 2026-04-29 23:30 | 27.07461 | 33.83192 | 1797 ft | 172 kts | 342° |
| 2026-04-29 23:30 | 27.08535 | 33.82870 | 1594 ft | 150 kts | 342° |
| 2026-04-29 23:31 | 27.09521 | 33.82577 | 1393 ft | 145 kts | 341° |
| 2026-04-29 23:31 | 27.10501 | 33.82282 | 1190 ft | 149 kts | 342° |
| 2026-04-29 23:31 | 27.11507 | 33.81984 | 999 ft | 150 kts | 343° |
| 2026-04-29 23:31 | 27.12530 | 33.81681 | 809 ft | 153 kts | 342° |
| 2026-04-29 23:32 | 27.13558 | 33.81374 | 606 ft | 155 kts | 338° |
| 2026-04-29 23:32 | 27.14591 | 33.81070 | 410 ft | 153 kts | 342° |
| 2026-04-29 23:32 | 27.15634 | 33.80758 | 222 ft | 158 kts | 339° |
| 2026-04-29 23:32 | 27.16680 | 33.80449 | 61 ft | 147 kts | 341° |
| 2026-04-29 23:33 | 27.17532 | 33.80190 | 55 ft | 95 kts | 346° |
| 2026-04-29 23:33 | 27.18031 | 33.80043 | 52 ft | 66 kts | 345° |
| 2026-04-29 23:33 | 27.18382 | 33.79942 | 53 ft | 34 kts | 349° |
| 2026-04-29 23:33 | 27.18445 | 33.79964 | 51 ft | 3 kts | 56° |
| 2026-04-29 23:34 | 27.18463 | 33.80013 | 52 ft | 12 kts | 72° |
| 2026-04-29 23:34 | 27.18470 | 33.80039 | 50 ft | 1 kts | 74° |
| 2026-04-29 23:34 | 27.18472 | 33.80049 | 50 ft | 2 kts | 79° |
| 2026-04-29 23:34 | 27.18466 | 33.80072 | 50 ft | 5 kts | 113° |
| 2026-04-29 23:35 | 27.18389 | 33.80116 | 50 ft | 26 kts | 167° |
| 2026-04-29 23:35 | 27.18219 | 33.80166 | 52 ft | 16 kts | 158° |
| 2026-04-29 23:35 | 27.18186 | 33.80211 | 55 ft | 2 kts | 105° |
| 2026-04-29 23:35 | 27.18185 | 33.80254 | 59 ft | 11 kts | 84° |
| 2026-04-29 23:36 | 27.18203 | 33.80349 | 60 ft | 10 kts | 81° |
| 2026-04-29 23:36 | 27.18184 | 33.80409 | 60 ft | 7 kts | 131° |
| 2026-04-29 23:36 | 27.18122 | 33.80442 | 58 ft | 14 kts | 164° |
| 2026-04-29 23:36 | 27.18001 | 33.80478 | 60 ft | 19 kts | 166° |
| 2026-04-29 23:37 | 27.17883 | 33.80513 | 57 ft | 16 kts | 165° |
| 2026-04-29 23:37 | 27.17847 | 33.80529 | 56 ft | 3 kts | 140° |
| 2026-04-29 23:37 | 27.17836 | 33.80558 | 57 ft | 3 kts | 99° |
| 2026-04-29 23:37 | 27.17838 | 33.80579 | 57 ft | 5 kts | 82° |
| 2026-04-29 23:38 | 27.17844 | 33.80612 | 62 ft | 2 kts | 77° |
| 2026-04-29 23:38 | 27.17847 | 33.80626 | 64 ft | 2 kts | 76° |
| 2026-04-29 23:38 | 27.17848 | 33.80631 | 62 ft | 1 kts | 76° |
| 2026-04-29 23:38 | 27.17850 | 33.80638 | 57 ft | 1 kts | 76° |
| 2026-04-29 23:42 | 27.16163 | 33.80603 | 103 ft | 157 kts | 341° |
| 2026-04-29 23:42 | 27.17153 | 33.80301 | 50 ft | 131 kts | 343° |
| 2026-04-29 23:42 | 27.17803 | 33.80110 | 56 ft | 70 kts | 345° |
| 2026-04-29 23:42 | 27.11765 | 33.81908 | 950 ft | 150 kts | 343° |
| 2026-04-29 23:43 | 27.12792 | 33.81607 | 746 ft | 154 kts | 341° |
| 2026-04-29 23:43 | 27.13828 | 33.81286 | 557 ft | 153 kts | 339° |
| 2026-04-29 23:43 | 27.14863 | 33.80992 | 365 ft | 153 kts | 340° |
| 2026-04-29 23:43 | 27.15914 | 33.80676 | 159 ft | 158 kts | 341° |
| 2026-04-29 23:44 | 27.16924 | 33.80376 | 52 ft | 142 kts | 341° |
| 2026-04-29 23:44 | 27.17681 | 33.80146 | 60 ft | 79 kts | 345° |
| 2026-04-29 23:44 | 27.18136 | 33.80014 | 52 ft | 55 kts | 345° |
| 2026-04-29 23:44 | 27.14736 | 33.81029 | 388 ft | 153 kts | 340° |
| 2026-04-29 23:45 | 27.15782 | 33.80714 | 202 ft | 158 kts | 340° |
| 2026-04-29 23:45 | 27.16805 | 33.80411 | 58 ft | 144 kts | 341° |
| 2026-04-29 23:45 | 27.16235 | 33.80582 | 93 ft | 156 kts | 341° |
| 2026-04-29 23:45 | 27.14905 | 33.80980 | 361 ft | 153 kts | 340° |
| 2026-04-29 23:46 | 27.15595 | 33.80769 | 225 ft | 158 kts | 338° |
| 2026-04-29 23:46 | 27.16967 | 33.80364 | 49 ft | 141 kts | 341° |
| 2026-04-29 23:46 | 27.16218 | 33.80587 | 97 ft | 156 kts | 341° |
| 2026-04-29 23:46 | 27.17083 | 33.80325 | 47 ft | 136 kts | 342° |
| 2026-04-29 23:47 | 27.16952 | 33.80368 | 48 ft | 141 kts | 341° |
| 2026-04-29 23:47 | 27.16810 | 33.80410 | 57 ft | 144 kts | 341° |
| 2026-04-29 23:47 | 27.15715 | 33.80734 | 211 ft | 158 kts | 339° |
| 2026-04-29 23:47 | 27.16757 | 33.80426 | 60 ft | 145 kts | 341° |